sensor_id;sensor_type;location;lat;lon;timestamp;P1;durP1;ratioP1;P2;durP2;ratioP2
36247;SDS011;22287;50.824;5.644;2022-12-29T00:01:59;1.17;;;0.50;;
36247;SDS011;22287;50.824;5.644;2022-12-29T00:04:26;2.22;;;0.50;;
36247;SDS011;22287;50.824;5.644;2022-12-29T00:06:53;0.93;;;0.50;;
36247;SDS011;22287;50.824;5.644;2022-12-29T00:09:20;3.80;;;0.40;;
36247;SDS011;22287;50.824;5.644;2022-12-29T00:11:47;2.08;;;0.70;;
36247;SDS011;22287;50.824;5.644;2022-12-29T00:14:16;0.80;;;0.50;;
36247;SDS011;22287;50.824;5.644;2022-12-29T00:17:02;0.38;;;0.20;;
36247;SDS011;22287;50.824;5.644;2022-12-29T00:19:29;0.73;;;0.40;;
36247;SDS011;22287;50.824;5.644;2022-12-29T00:22:14;1.05;;;0.40;;
36247;SDS011;22287;50.824;5.644;2022-12-29T00:25:00;0.52;;;0.35;;
36247;SDS011;22287;50.824;5.644;2022-12-29T00:27:45;0.60;;;0.40;;
36247;SDS011;22287;50.824;5.644;2022-12-29T00:30:32;0.60;;;0.30;;
36247;SDS011;22287;50.824;5.644;2022-12-29T00:33:20;1.65;;;0.40;;
36247;SDS011;22287;50.824;5.644;2022-12-29T00:38:50;0.75;;;0.30;;
36247;SDS011;22287;50.824;5.644;2022-12-29T00:41:38;0.93;;;0.25;;
36247;SDS011;22287;50.824;5.644;2022-12-29T00:44:23;1.52;;;0.30;;
36247;SDS011;22287;50.824;5.644;2022-12-29T00:46:50;0.93;;;0.30;;
36247;SDS011;22287;50.824;5.644;2022-12-29T00:49:18;0.50;;;0.30;;
36247;SDS011;22287;50.824;5.644;2022-12-29T00:52:06;1.25;;;0.30;;
36247;SDS011;22287;50.824;5.644;2022-12-29T00:54:36;2.45;;;0.52;;
36247;SDS011;22287;50.824;5.644;2022-12-29T00:57:05;2.22;;;0.38;;
36247;SDS011;22287;50.824;5.644;2022-12-29T00:59:37;1.30;;;0.98;;
36247;SDS011;22287;50.824;5.644;2022-12-29T01:02:08;0.88;;;0.32;;
36247;SDS011;22287;50.824;5.644;2022-12-29T01:04:35;1.13;;;0.30;;
36247;SDS011;22287;50.824;5.644;2022-12-29T01:07:03;0.80;;;0.30;;
36247;SDS011;22287;50.824;5.644;2022-12-29T01:09:31;0.80;;;0.40;;
36247;SDS011;22287;50.824;5.644;2022-12-29T01:12:17;1.23;;;0.60;;
36247;SDS011;22287;50.824;5.644;2022-12-29T01:15:04;1.83;;;0.50;;
36247;SDS011;22287;50.824;5.644;2022-12-29T01:17:31;1.70;;;0.90;;
36247;SDS011;22287;50.824;5.644;2022-12-29T01:19:58;2.28;;;0.60;;
36247;SDS011;22287;50.824;5.644;2022-12-29T01:22:25;2.00;;;0.57;;
36247;SDS011;22287;50.824;5.644;2022-12-29T01:24:54;1.42;;;0.50;;
36247;SDS011;22287;50.824;5.644;2022-12-29T01:27:21;1.40;;;0.50;;
36247;SDS011;22287;50.824;5.644;2022-12-29T01:29:48;2.15;;;0.63;;
36247;SDS011;22287;50.824;5.644;2022-12-29T01:32:15;3.17;;;0.60;;
36247;SDS011;22287;50.824;5.644;2022-12-29T01:34:41;3.92;;;0.50;;
36247;SDS011;22287;50.824;5.644;2022-12-29T01:37:08;2.42;;;1.02;;
36247;SDS011;22287;50.824;5.644;2022-12-29T01:39:36;2.28;;;0.65;;
36247;SDS011;22287;50.824;5.644;2022-12-29T01:42:03;2.10;;;0.52;;
36247;SDS011;22287;50.824;5.644;2022-12-29T01:47:21;1.60;;;0.82;;
36247;SDS011;22287;50.824;5.644;2022-12-29T01:49:51;2.30;;;0.70;;
36247;SDS011;22287;50.824;5.644;2022-12-29T01:52:20;3.03;;;0.93;;
36247;SDS011;22287;50.824;5.644;2022-12-29T01:54:51;1.38;;;0.68;;
36247;SDS011;22287;50.824;5.644;2022-12-29T01:57:25;3.22;;;0.80;;
36247;SDS011;22287;50.824;5.644;2022-12-29T02:00:09;1.02;;;0.60;;
36247;SDS011;22287;50.824;5.644;2022-12-29T02:02:41;1.08;;;0.55;;
36247;SDS011;22287;50.824;5.644;2022-12-29T02:05:14;1.33;;;0.70;;
36247;SDS011;22287;50.824;5.644;2022-12-29T02:07:51;4.25;;;0.90;;
36247;SDS011;22287;50.824;5.644;2022-12-29T02:10:23;1.90;;;0.65;;
36247;SDS011;22287;50.824;5.644;2022-12-29T02:12:53;1.95;;;0.65;;
36247;SDS011;22287;50.824;5.644;2022-12-29T02:15:24;1.98;;;0.60;;
36247;SDS011;22287;50.824;5.644;2022-12-29T02:18:32;2.22;;;0.60;;
36247;SDS011;22287;50.824;5.644;2022-12-29T02:21:10;2.47;;;0.50;;
36247;SDS011;22287;50.824;5.644;2022-12-29T02:24:12;0.93;;;0.35;;
36247;SDS011;22287;50.824;5.644;2022-12-29T02:32:32;3.80;;;0.80;;
36247;SDS011;22287;50.824;5.644;2022-12-29T02:35:27;3.25;;;0.70;;
36247;SDS011;22287;50.824;5.644;2022-12-29T02:40:30;1.55;;;0.60;;
36247;SDS011;22287;50.824;5.644;2022-12-29T02:45:31;1.02;;;0.45;;
36247;SDS011;22287;50.824;5.644;2022-12-29T02:53:34;2.17;;;0.30;;
36247;SDS011;22287;50.824;5.644;2022-12-29T02:56:20;1.33;;;0.30;;
36247;SDS011;22287;50.824;5.644;2022-12-29T02:58:48;0.95;;;0.55;;
36247;SDS011;22287;50.824;5.644;2022-12-29T03:07:00;2.88;;;0.73;;
36247;SDS011;22287;50.824;5.644;2022-12-29T03:09:49;0.70;;;0.20;;
36247;SDS011;22287;50.824;5.644;2022-12-29T03:12:30;0.70;;;0.30;;
36247;SDS011;22287;50.824;5.644;2022-12-29T03:18:37;2.42;;;0.80;;
36247;SDS011;22287;50.824;5.644;2022-12-29T03:24:13;0.88;;;0.30;;
36247;SDS011;22287;50.824;5.644;2022-12-29T03:26:41;1.20;;;0.30;;
36247;SDS011;22287;50.824;5.644;2022-12-29T03:29:12;2.38;;;0.35;;
36247;SDS011;22287;50.824;5.644;2022-12-29T03:31:55;1.52;;;0.85;;
36247;SDS011;22287;50.824;5.644;2022-12-29T03:34:39;2.15;;;0.50;;
36247;SDS011;22287;50.824;5.644;2022-12-29T03:37:07;1.27;;;0.57;;
36247;SDS011;22287;50.824;5.644;2022-12-29T03:39:38;0.57;;;0.28;;
36247;SDS011;22287;50.824;5.644;2022-12-29T03:42:20;1.45;;;0.50;;
36247;SDS011;22287;50.824;5.644;2022-12-29T03:45:04;0.50;;;0.30;;
36247;SDS011;22287;50.824;5.644;2022-12-29T03:47:32;3.15;;;0.30;;
36247;SDS011;22287;50.824;5.644;2022-12-29T03:50:00;2.00;;;0.35;;
36247;SDS011;22287;50.824;5.644;2022-12-29T03:52:28;1.52;;;0.25;;
36247;SDS011;22287;50.824;5.644;2022-12-29T03:54:54;3.05;;;0.40;;
36247;SDS011;22287;50.824;5.644;2022-12-29T03:57:21;1.70;;;0.40;;
36247;SDS011;22287;50.824;5.644;2022-12-29T04:00:00;3.03;;;0.40;;
36247;SDS011;22287;50.824;5.644;2022-12-29T04:02:29;2.15;;;0.17;;
36247;SDS011;22287;50.824;5.644;2022-12-29T04:04:56;1.65;;;0.30;;
36247;SDS011;22287;50.824;5.644;2022-12-29T04:07:23;1.38;;;0.38;;
36247;SDS011;22287;50.824;5.644;2022-12-29T04:09:52;3.85;;;0.77;;
36247;SDS011;22287;50.824;5.644;2022-12-29T04:12:22;1.45;;;0.30;;
36247;SDS011;22287;50.824;5.644;2022-12-29T04:14:49;1.48;;;0.20;;
36247;SDS011;22287;50.824;5.644;2022-12-29T04:17:17;2.45;;;0.30;;
36247;SDS011;22287;50.824;5.644;2022-12-29T04:19:45;1.02;;;0.40;;
36247;SDS011;22287;50.824;5.644;2022-12-29T04:22:11;3.30;;;0.57;;
36247;SDS011;22287;50.824;5.644;2022-12-29T04:24:39;2.45;;;0.50;;
36247;SDS011;22287;50.824;5.644;2022-12-29T04:27:08;1.70;;;0.30;;
36247;SDS011;22287;50.824;5.644;2022-12-29T04:29:54;1.30;;;0.40;;
36247;SDS011;22287;50.824;5.644;2022-12-29T04:32:44;1.00;;;0.30;;
36247;SDS011;22287;50.824;5.644;2022-12-29T04:35:11;1.30;;;0.35;;
36247;SDS011;22287;50.824;5.644;2022-12-29T04:37:38;2.88;;;0.32;;
36247;SDS011;22287;50.824;5.644;2022-12-29T04:40:06;0.60;;;0.38;;
36247;SDS011;22287;50.824;5.644;2022-12-29T04:42:33;3.22;;;0.73;;
36247;SDS011;22287;50.824;5.644;2022-12-29T04:45:02;1.05;;;0.30;;
36247;SDS011;22287;50.824;5.644;2022-12-29T04:48:06;1.17;;;0.30;;
36247;SDS011;22287;50.824;5.644;2022-12-29T04:50:43;2.75;;;0.40;;
36247;SDS011;22287;50.824;5.644;2022-12-29T04:53:16;0.88;;;0.20;;
36247;SDS011;22287;50.824;5.644;2022-12-29T04:55:44;2.08;;;0.30;;
36247;SDS011;22287;50.824;5.644;2022-12-29T04:58:28;2.83;;;0.30;;
36247;SDS011;22287;50.824;5.644;2022-12-29T05:00:54;0.43;;;0.15;;
36247;SDS011;22287;50.824;5.644;2022-12-29T05:03:34;1.10;;;0.15;;
36247;SDS011;22287;50.824;5.644;2022-12-29T05:06:01;2.20;;;0.32;;
36247;SDS011;22287;50.824;5.644;2022-12-29T05:08:28;2.58;;;0.47;;
36247;SDS011;22287;50.824;5.644;2022-12-29T05:10:58;2.42;;;0.40;;
36247;SDS011;22287;50.824;5.644;2022-12-29T05:13:25;0.93;;;0.40;;
36247;SDS011;22287;50.824;5.644;2022-12-29T05:15:52;3.83;;;0.40;;
36247;SDS011;22287;50.824;5.644;2022-12-29T05:18:22;2.72;;;0.45;;
36247;SDS011;22287;50.824;5.644;2022-12-29T05:20:49;3.25;;;0.30;;
36247;SDS011;22287;50.824;5.644;2022-12-29T05:23:17;1.35;;;0.50;;
36247;SDS011;22287;50.824;5.644;2022-12-29T05:25:50;1.38;;;0.20;;
36247;SDS011;22287;50.824;5.644;2022-12-29T05:28:21;1.45;;;0.38;;
36247;SDS011;22287;50.824;5.644;2022-12-29T05:30:54;1.65;;;0.30;;
36247;SDS011;22287;50.824;5.644;2022-12-29T05:33:21;3.47;;;0.55;;
36247;SDS011;22287;50.824;5.644;2022-12-29T05:35:49;2.45;;;0.20;;
36247;SDS011;22287;50.824;5.644;2022-12-29T05:38:30;3.90;;;0.38;;
36247;SDS011;22287;50.824;5.644;2022-12-29T05:41:00;1.27;;;0.25;;
36247;SDS011;22287;50.824;5.644;2022-12-29T05:43:46;2.30;;;0.30;;
36247;SDS011;22287;50.824;5.644;2022-12-29T05:46:28;3.42;;;0.50;;
36247;SDS011;22287;50.824;5.644;2022-12-29T05:49:17;4.95;;;0.47;;
36247;SDS011;22287;50.824;5.644;2022-12-29T05:52:10;4.38;;;0.82;;
36247;SDS011;22287;50.824;5.644;2022-12-29T05:54:51;0.73;;;0.30;;
36247;SDS011;22287;50.824;5.644;2022-12-29T05:57:21;1.25;;;0.32;;
36247;SDS011;22287;50.824;5.644;2022-12-29T05:59:56;1.85;;;0.32;;
36247;SDS011;22287;50.824;5.644;2022-12-29T06:02:23;3.40;;;0.60;;
36247;SDS011;22287;50.824;5.644;2022-12-29T06:04:50;3.58;;;0.50;;
36247;SDS011;22287;50.824;5.644;2022-12-29T06:07:17;3.05;;;0.40;;
36247;SDS011;22287;50.824;5.644;2022-12-29T06:09:46;1.60;;;0.28;;
36247;SDS011;22287;50.824;5.644;2022-12-29T06:12:30;0.75;;;0.20;;
36247;SDS011;22287;50.824;5.644;2022-12-29T06:15:11;2.95;;;0.90;;
36247;SDS011;22287;50.824;5.644;2022-12-29T06:17:53;4.07;;;0.43;;
36247;SDS011;22287;50.824;5.644;2022-12-29T06:20:21;2.28;;;0.70;;
36247;SDS011;22287;50.824;5.644;2022-12-29T06:23:04;4.00;;;0.50;;
36247;SDS011;22287;50.824;5.644;2022-12-29T06:25:31;4.15;;;0.50;;
36247;SDS011;22287;50.824;5.644;2022-12-29T06:27:59;1.85;;;0.50;;
36247;SDS011;22287;50.824;5.644;2022-12-29T06:30:26;3.85;;;0.55;;
36247;SDS011;22287;50.824;5.644;2022-12-29T06:32:53;4.85;;;0.52;;
36247;SDS011;22287;50.824;5.644;2022-12-29T06:35:23;1.40;;;0.50;;
36247;SDS011;22287;50.824;5.644;2022-12-29T06:37:50;2.38;;;0.40;;
36247;SDS011;22287;50.824;5.644;2022-12-29T06:40:18;3.47;;;0.70;;
36247;SDS011;22287;50.824;5.644;2022-12-29T06:43:02;4.10;;;0.38;;
36247;SDS011;22287;50.824;5.644;2022-12-29T06:45:47;3.15;;;0.47;;
36247;SDS011;22287;50.824;5.644;2022-12-29T06:48:15;3.03;;;0.50;;
36247;SDS011;22287;50.824;5.644;2022-12-29T06:50:42;3.00;;;0.57;;
36247;SDS011;22287;50.824;5.644;2022-12-29T06:53:09;4.15;;;0.40;;
36247;SDS011;22287;50.824;5.644;2022-12-29T06:55:36;4.32;;;0.70;;
36247;SDS011;22287;50.824;5.644;2022-12-29T06:58:03;5.22;;;0.80;;
36247;SDS011;22287;50.824;5.644;2022-12-29T07:00:30;1.60;;;0.28;;
36247;SDS011;22287;50.824;5.644;2022-12-29T07:02:57;4.47;;;0.38;;
36247;SDS011;22287;50.824;5.644;2022-12-29T07:05:27;3.28;;;0.50;;
36247;SDS011;22287;50.824;5.644;2022-12-29T07:07:54;5.03;;;0.50;;
36247;SDS011;22287;50.824;5.644;2022-12-29T07:10:22;3.55;;;0.40;;
36247;SDS011;22287;50.824;5.644;2022-12-29T07:12:49;3.78;;;0.70;;
36247;SDS011;22287;50.824;5.644;2022-12-29T07:15:16;5.43;;;0.65;;
36247;SDS011;22287;50.824;5.644;2022-12-29T07:17:43;8.57;;;0.70;;
36247;SDS011;22287;50.824;5.644;2022-12-29T07:20:10;5.05;;;1.20;;
36247;SDS011;22287;50.824;5.644;2022-12-29T07:22:37;6.00;;;0.73;;
36247;SDS011;22287;50.824;5.644;2022-12-29T07:25:04;4.93;;;0.73;;
36247;SDS011;22287;50.824;5.644;2022-12-29T07:27:31;6.25;;;1.00;;
36247;SDS011;22287;50.824;5.644;2022-12-29T07:29:58;4.93;;;0.68;;
36247;SDS011;22287;50.824;5.644;2022-12-29T07:32:25;8.60;;;0.82;;
36247;SDS011;22287;50.824;5.644;2022-12-29T07:34:52;9.07;;;1.27;;
36247;SDS011;22287;50.824;5.644;2022-12-29T07:37:19;4.20;;;0.52;;
36247;SDS011;22287;50.824;5.644;2022-12-29T07:39:46;5.43;;;0.50;;
36247;SDS011;22287;50.824;5.644;2022-12-29T07:42:13;3.42;;;0.82;;
36247;SDS011;22287;50.824;5.644;2022-12-29T07:44:42;1.33;;;0.50;;
36247;SDS011;22287;50.824;5.644;2022-12-29T07:47:17;3.97;;;0.73;;
36247;SDS011;22287;50.824;5.644;2022-12-29T07:49:44;2.95;;;0.50;;
36247;SDS011;22287;50.824;5.644;2022-12-29T07:52:10;5.07;;;0.95;;
36247;SDS011;22287;50.824;5.644;2022-12-29T07:54:37;2.83;;;0.47;;
36247;SDS011;22287;50.824;5.644;2022-12-29T07:57:04;6.38;;;0.70;;
36247;SDS011;22287;50.824;5.644;2022-12-29T07:59:32;9.80;;;1.52;;
36247;SDS011;22287;50.824;5.644;2022-12-29T08:01:59;4.57;;;0.73;;
36247;SDS011;22287;50.824;5.644;2022-12-29T08:04:26;5.75;;;1.38;;
36247;SDS011;22287;50.824;5.644;2022-12-29T08:06:53;8.60;;;0.98;;
36247;SDS011;22287;50.824;5.644;2022-12-29T08:09:20;2.15;;;0.47;;
36247;SDS011;22287;50.824;5.644;2022-12-29T08:11:48;3.85;;;0.65;;
36247;SDS011;22287;50.824;5.644;2022-12-29T08:14:15;3.03;;;1.13;;
36247;SDS011;22287;50.824;5.644;2022-12-29T08:16:41;2.58;;;0.50;;
36247;SDS011;22287;50.824;5.644;2022-12-29T08:19:10;4.35;;;0.52;;
36247;SDS011;22287;50.824;5.644;2022-12-29T08:21:38;4.70;;;0.60;;
36247;SDS011;22287;50.824;5.644;2022-12-29T08:24:05;2.92;;;0.60;;
36247;SDS011;22287;50.824;5.644;2022-12-29T08:26:33;4.60;;;0.80;;
36247;SDS011;22287;50.824;5.644;2022-12-29T08:28:59;4.30;;;0.70;;
36247;SDS011;22287;50.824;5.644;2022-12-29T08:31:26;3.97;;;0.52;;
36247;SDS011;22287;50.824;5.644;2022-12-29T08:33:53;3.28;;;0.70;;
36247;SDS011;22287;50.824;5.644;2022-12-29T08:36:20;6.03;;;1.13;;
36247;SDS011;22287;50.824;5.644;2022-12-29T08:38:47;5.20;;;0.40;;
36247;SDS011;22287;50.824;5.644;2022-12-29T08:41:14;4.00;;;0.50;;
36247;SDS011;22287;50.824;5.644;2022-12-29T08:43:41;3.90;;;0.70;;
36247;SDS011;22287;50.824;5.644;2022-12-29T08:46:07;4.22;;;0.50;;
36247;SDS011;22287;50.824;5.644;2022-12-29T08:48:34;2.45;;;0.63;;
36247;SDS011;22287;50.824;5.644;2022-12-29T08:51:01;4.50;;;0.70;;
36247;SDS011;22287;50.824;5.644;2022-12-29T08:53:28;7.53;;;1.13;;
36247;SDS011;22287;50.824;5.644;2022-12-29T08:55:58;4.57;;;0.52;;
36247;SDS011;22287;50.824;5.644;2022-12-29T08:58:37;4.57;;;0.73;;
36247;SDS011;22287;50.824;5.644;2022-12-29T09:01:05;8.20;;;1.38;;
36247;SDS011;22287;50.824;5.644;2022-12-29T09:03:33;5.15;;;1.35;;
36247;SDS011;22287;50.824;5.644;2022-12-29T09:06:20;6.97;;;0.85;;
36247;SDS011;22287;50.824;5.644;2022-12-29T09:08:47;8.75;;;0.60;;
36247;SDS011;22287;50.824;5.644;2022-12-29T09:11:21;3.17;;;0.50;;
36247;SDS011;22287;50.824;5.644;2022-12-29T09:13:50;5.53;;;0.90;;
36247;SDS011;22287;50.824;5.644;2022-12-29T09:16:18;8.38;;;1.00;;
36247;SDS011;22287;50.824;5.644;2022-12-29T09:18:46;2.83;;;0.63;;
36247;SDS011;22287;50.824;5.644;2022-12-29T09:21:13;3.28;;;0.65;;
36247;SDS011;22287;50.824;5.644;2022-12-29T09:23:40;3.80;;;1.00;;
36247;SDS011;22287;50.824;5.644;2022-12-29T09:26:07;3.75;;;1.02;;
36247;SDS011;22287;50.824;5.644;2022-12-29T09:28:35;4.22;;;0.73;;
36247;SDS011;22287;50.824;5.644;2022-12-29T09:31:01;5.47;;;0.50;;
36247;SDS011;22287;50.824;5.644;2022-12-29T09:33:29;4.32;;;0.93;;
36247;SDS011;22287;50.824;5.644;2022-12-29T09:35:56;4.53;;;1.10;;
36247;SDS011;22287;50.824;5.644;2022-12-29T09:38:25;6.30;;;0.63;;
36247;SDS011;22287;50.824;5.644;2022-12-29T09:40:54;4.10;;;1.35;;
36247;SDS011;22287;50.824;5.644;2022-12-29T09:48:29;3.88;;;0.60;;
36247;SDS011;22287;50.824;5.644;2022-12-29T09:51:00;4.05;;;0.73;;
36247;SDS011;22287;50.824;5.644;2022-12-29T09:54:04;6.43;;;1.05;;
36247;SDS011;22287;50.824;5.644;2022-12-29T09:56:25;8.77;;;0.93;;
36247;SDS011;22287;50.824;5.644;2022-12-29T09:59:00;5.47;;;0.80;;
36247;SDS011;22287;50.824;5.644;2022-12-29T10:04:13;6.00;;;0.70;;
36247;SDS011;22287;50.824;5.644;2022-12-29T10:21:44;6.35;;;0.95;;
36247;SDS011;22287;50.824;5.644;2022-12-29T10:24:13;10.02;;;1.00;;
36247;SDS011;22287;50.824;5.644;2022-12-29T10:26:42;5.03;;;0.80;;
36247;SDS011;22287;50.824;5.644;2022-12-29T10:31:54;3.95;;;0.60;;
36247;SDS011;22287;50.824;5.644;2022-12-29T10:34:34;4.82;;;1.13;;
36247;SDS011;22287;50.824;5.644;2022-12-29T10:39:52;6.90;;;1.00;;
36247;SDS011;22287;50.824;5.644;2022-12-29T10:42:25;7.40;;;0.80;;
36247;SDS011;22287;50.824;5.644;2022-12-29T10:45:03;7.93;;;0.95;;
36247;SDS011;22287;50.824;5.644;2022-12-29T10:47:35;5.03;;;0.82;;
36247;SDS011;22287;50.824;5.644;2022-12-29T10:50:11;6.10;;;0.82;;
36247;SDS011;22287;50.824;5.644;2022-12-29T10:52:38;5.40;;;2.60;;
36247;SDS011;22287;50.824;5.644;2022-12-29T10:55:12;3.53;;;0.63;;
36247;SDS011;22287;50.824;5.644;2022-12-29T10:57:44;5.55;;;0.98;;
36247;SDS011;22287;50.824;5.644;2022-12-29T11:00:19;7.82;;;0.88;;
36247;SDS011;22287;50.824;5.644;2022-12-29T11:03:09;6.47;;;0.93;;
36247;SDS011;22287;50.824;5.644;2022-12-29T11:08:35;7.28;;;1.17;;
36247;SDS011;22287;50.824;5.644;2022-12-29T11:11:05;7.68;;;0.85;;
36247;SDS011;22287;50.824;5.644;2022-12-29T11:13:57;4.63;;;0.63;;
36247;SDS011;22287;50.824;5.644;2022-12-29T11:16:29;4.63;;;1.10;;
36247;SDS011;22287;50.824;5.644;2022-12-29T11:18:59;5.85;;;0.50;;
36247;SDS011;22287;50.824;5.644;2022-12-29T11:24:02;3.22;;;0.60;;
36247;SDS011;22287;50.824;5.644;2022-12-29T11:26:31;4.25;;;1.02;;
36247;SDS011;22287;50.824;5.644;2022-12-29T11:31:51;3.97;;;0.93;;
36247;SDS011;22287;50.824;5.644;2022-12-29T11:34:23;4.90;;;0.65;;
36247;SDS011;22287;50.824;5.644;2022-12-29T11:37:12;3.08;;;0.50;;
36247;SDS011;22287;50.824;5.644;2022-12-29T11:44:57;5.20;;;0.50;;
36247;SDS011;22287;50.824;5.644;2022-12-29T11:47:36;5.30;;;0.85;;
36247;SDS011;22287;50.824;5.644;2022-12-29T11:50:04;5.15;;;0.85;;
36247;SDS011;22287;50.824;5.644;2022-12-29T11:52:35;5.63;;;0.82;;
36247;SDS011;22287;50.824;5.644;2022-12-29T11:55:13;6.90;;;1.35;;
36247;SDS011;22287;50.824;5.644;2022-12-29T11:57:44;4.90;;;0.75;;
36247;SDS011;22287;50.824;5.644;2022-12-29T12:00:16;6.10;;;0.75;;
36247;SDS011;22287;50.824;5.644;2022-12-29T12:05:36;4.75;;;1.00;;
36247;SDS011;22287;50.824;5.644;2022-12-29T12:08:26;5.72;;;1.40;;
36247;SDS011;22287;50.824;5.644;2022-12-29T12:14:08;8.68;;;1.02;;
36247;SDS011;22287;50.824;5.644;2022-12-29T12:17:19;5.10;;;0.82;;
36247;SDS011;22287;50.824;5.644;2022-12-29T12:25:57;4.35;;;1.17;;
36247;SDS011;22287;50.824;5.644;2022-12-29T12:34:54;5.70;;;0.85;;
36247;SDS011;22287;50.824;5.644;2022-12-29T12:43:28;3.03;;;0.85;;
36247;SDS011;22287;50.824;5.644;2022-12-29T13:04:08;5.47;;;0.85;;
36247;SDS011;22287;50.824;5.644;2022-12-29T13:12:57;3.95;;;0.90;;
36247;SDS011;22287;50.824;5.644;2022-12-29T13:21:19;10.23;;;0.68;;
36247;SDS011;22287;50.824;5.644;2022-12-29T13:26:42;5.30;;;0.80;;
36247;SDS011;22287;50.824;5.644;2022-12-29T13:29:23;2.90;;;0.90;;
36247;SDS011;22287;50.824;5.644;2022-12-29T13:32:14;5.40;;;0.70;;
36247;SDS011;22287;50.824;5.644;2022-12-29T13:37:29;14.48;;;1.65;;
36247;SDS011;22287;50.824;5.644;2022-12-29T13:39:59;3.40;;;0.70;;
36247;SDS011;22287;50.824;5.644;2022-12-29T13:42:29;2.65;;;1.10;;
36247;SDS011;22287;50.824;5.644;2022-12-29T13:44:59;4.18;;;0.65;;
36247;SDS011;22287;50.824;5.644;2022-12-29T13:47:36;4.70;;;0.70;;
36247;SDS011;22287;50.824;5.644;2022-12-29T13:50:15;8.30;;;1.67;;
36247;SDS011;22287;50.824;5.644;2022-12-29T13:52:49;5.32;;;0.80;;
36247;SDS011;22287;50.824;5.644;2022-12-29T13:55:32;2.17;;;0.50;;
36247;SDS011;22287;50.824;5.644;2022-12-29T13:58:07;3.42;;;0.68;;
36247;SDS011;22287;50.824;5.644;2022-12-29T14:00:46;7.57;;;1.20;;
36247;SDS011;22287;50.824;5.644;2022-12-29T14:06:22;2.90;;;0.70;;
36247;SDS011;22287;50.824;5.644;2022-12-29T14:12:11;5.28;;;0.75;;
36247;SDS011;22287;50.824;5.644;2022-12-29T14:14:47;7.40;;;1.08;;
36247;SDS011;22287;50.824;5.644;2022-12-29T14:17:16;4.53;;;0.80;;
36247;SDS011;22287;50.824;5.644;2022-12-29T14:19:47;4.65;;;0.80;;
36247;SDS011;22287;50.824;5.644;2022-12-29T14:22:22;3.70;;;0.65;;
36247;SDS011;22287;50.824;5.644;2022-12-29T14:24:57;5.95;;;0.82;;
36247;SDS011;22287;50.824;5.644;2022-12-29T14:29:54;3.42;;;0.65;;
36247;SDS011;22287;50.824;5.644;2022-12-29T14:34:51;3.70;;;0.90;;
36247;SDS011;22287;50.824;5.644;2022-12-29T14:42:41;3.67;;;1.10;;
36247;SDS011;22287;50.824;5.644;2022-12-29T14:47:50;2.97;;;0.80;;
36247;SDS011;22287;50.824;5.644;2022-12-29T14:53:06;5.88;;;0.73;;
36247;SDS011;22287;50.824;5.644;2022-12-29T14:55:54;7.05;;;1.65;;
36247;SDS011;22287;50.824;5.644;2022-12-29T15:00:57;4.05;;;0.90;;
36247;SDS011;22287;50.824;5.644;2022-12-29T15:03:30;6.22;;;0.85;;
36247;SDS011;22287;50.824;5.644;2022-12-29T15:06:05;5.20;;;0.82;;
36247;SDS011;22287;50.824;5.644;2022-12-29T15:08:45;8.00;;;0.80;;
36247;SDS011;22287;50.824;5.644;2022-12-29T15:11:18;5.97;;;1.40;;
36247;SDS011;22287;50.824;5.644;2022-12-29T15:13:48;9.07;;;1.25;;
36247;SDS011;22287;50.824;5.644;2022-12-29T15:16:31;6.05;;;0.93;;
36247;SDS011;22287;50.824;5.644;2022-12-29T15:19:03;2.88;;;0.45;;
36247;SDS011;22287;50.824;5.644;2022-12-29T15:21:32;5.35;;;1.15;;
36247;SDS011;22287;50.824;5.644;2022-12-29T15:24:02;6.35;;;0.98;;
36247;SDS011;22287;50.824;5.644;2022-12-29T15:26:36;9.70;;;1.73;;
36247;SDS011;22287;50.824;5.644;2022-12-29T15:29:05;3.88;;;0.88;;
36247;SDS011;22287;50.824;5.644;2022-12-29T15:34:49;6.15;;;1.55;;
36247;SDS011;22287;50.824;5.644;2022-12-29T15:37:36;7.63;;;1.00;;
36247;SDS011;22287;50.824;5.644;2022-12-29T15:40:03;6.20;;;1.42;;
36247;SDS011;22287;50.824;5.644;2022-12-29T15:45:33;8.77;;;1.17;;
36247;SDS011;22287;50.824;5.644;2022-12-29T15:48:02;3.63;;;0.98;;
36247;SDS011;22287;50.824;5.644;2022-12-29T15:50:34;7.78;;;0.82;;
36247;SDS011;22287;50.824;5.644;2022-12-29T15:53:03;7.15;;;1.35;;
36247;SDS011;22287;50.824;5.644;2022-12-29T15:55:38;9.88;;;1.15;;
36247;SDS011;22287;50.824;5.644;2022-12-29T15:58:21;5.72;;;0.90;;
36247;SDS011;22287;50.824;5.644;2022-12-29T16:00:59;6.55;;;1.30;;
36247;SDS011;22287;50.824;5.644;2022-12-29T16:03:29;4.75;;;0.75;;
36247;SDS011;22287;50.824;5.644;2022-12-29T16:06:10;10.50;;;2.97;;
36247;SDS011;22287;50.824;5.644;2022-12-29T16:09:15;5.53;;;0.88;;
36247;SDS011;22287;50.824;5.644;2022-12-29T16:11:51;6.10;;;1.10;;
36247;SDS011;22287;50.824;5.644;2022-12-29T16:14:24;6.50;;;1.92;;
36247;SDS011;22287;50.824;5.644;2022-12-29T16:17:01;10.98;;;1.35;;
36247;SDS011;22287;50.824;5.644;2022-12-29T16:19:34;6.25;;;1.48;;
36247;SDS011;22287;50.824;5.644;2022-12-29T16:22:15;8.05;;;1.05;;
36247;SDS011;22287;50.824;5.644;2022-12-29T16:24:50;7.85;;;2.38;;
36247;SDS011;22287;50.824;5.644;2022-12-29T16:27:31;5.30;;;1.38;;
36247;SDS011;22287;50.824;5.644;2022-12-29T16:30:21;7.78;;;1.15;;
36247;SDS011;22287;50.824;5.644;2022-12-29T16:32:59;10.88;;;1.75;;
36247;SDS011;22287;50.824;5.644;2022-12-29T16:40:57;9.32;;;1.30;;
36247;SDS011;22287;50.824;5.644;2022-12-29T16:43:32;7.10;;;1.40;;
36247;SDS011;22287;50.824;5.644;2022-12-29T16:48:29;8.80;;;1.45;;
36247;SDS011;22287;50.824;5.644;2022-12-29T16:51:05;6.65;;;1.10;;
36247;SDS011;22287;50.824;5.644;2022-12-29T16:53:40;8.32;;;1.13;;
36247;SDS011;22287;50.824;5.644;2022-12-29T16:56:14;10.27;;;1.60;;
36247;SDS011;22287;50.824;5.644;2022-12-29T16:58:47;11.90;;;1.60;;
36247;SDS011;22287;50.824;5.644;2022-12-29T17:01:17;9.68;;;1.48;;
36247;SDS011;22287;50.824;5.644;2022-12-29T17:03:54;8.23;;;1.25;;
36247;SDS011;22287;50.824;5.644;2022-12-29T17:06:25;8.80;;;1.42;;
36247;SDS011;22287;50.824;5.644;2022-12-29T17:08:52;11.20;;;2.10;;
36247;SDS011;22287;50.824;5.644;2022-12-29T17:11:23;7.43;;;1.80;;
36247;SDS011;22287;50.824;5.644;2022-12-29T17:17:19;8.82;;;2.40;;
36247;SDS011;22287;50.824;5.644;2022-12-29T17:19:55;8.73;;;1.20;;
36247;SDS011;22287;50.824;5.644;2022-12-29T17:22:26;7.15;;;1.33;;
36247;SDS011;22287;50.824;5.644;2022-12-29T17:24:54;5.85;;;1.52;;
36247;SDS011;22287;50.824;5.644;2022-12-29T17:30:09;7.78;;;1.75;;
36247;SDS011;22287;50.824;5.644;2022-12-29T17:32:39;7.38;;;1.42;;
36247;SDS011;22287;50.824;5.644;2022-12-29T17:35:15;6.32;;;1.17;;
36247;SDS011;22287;50.824;5.644;2022-12-29T17:37:44;6.63;;;1.23;;
36247;SDS011;22287;50.824;5.644;2022-12-29T17:40:28;7.35;;;1.63;;
36247;SDS011;22287;50.824;5.644;2022-12-29T17:43:12;7.20;;;1.05;;
36247;SDS011;22287;50.824;5.644;2022-12-29T17:45:41;5.32;;;1.02;;
36247;SDS011;22287;50.824;5.644;2022-12-29T17:48:12;2.95;;;0.90;;
36247;SDS011;22287;50.824;5.644;2022-12-29T17:50:41;4.82;;;1.17;;
36247;SDS011;22287;50.824;5.644;2022-12-29T17:53:12;3.13;;;0.75;;
36247;SDS011;22287;50.824;5.644;2022-12-29T17:55:41;6.20;;;0.85;;
36247;SDS011;22287;50.824;5.644;2022-12-29T17:58:18;5.30;;;0.85;;
36247;SDS011;22287;50.824;5.644;2022-12-29T18:00:49;6.18;;;1.35;;
36247;SDS011;22287;50.824;5.644;2022-12-29T18:05:59;5.18;;;0.77;;
36247;SDS011;22287;50.824;5.644;2022-12-29T18:08:27;3.65;;;1.35;;
36247;SDS011;22287;50.824;5.644;2022-12-29T18:10:55;3.08;;;0.60;;
36247;SDS011;22287;50.824;5.644;2022-12-29T18:13:26;3.83;;;0.70;;
36247;SDS011;22287;50.824;5.644;2022-12-29T18:16:07;3.70;;;0.95;;
36247;SDS011;22287;50.824;5.644;2022-12-29T18:18:36;7.03;;;1.48;;
36247;SDS011;22287;50.824;5.644;2022-12-29T18:21:03;2.92;;;0.80;;
36247;SDS011;22287;50.824;5.644;2022-12-29T18:23:31;5.53;;;0.63;;
36247;SDS011;22287;50.824;5.644;2022-12-29T18:26:03;3.50;;;0.60;;